Time;durP1;ratioP1;P1;durP2;ratioP2;P2;SDS_P1;SDS_P2;PMS_P1;PMS_P2;Temp;Humidity;BMP_temperature;BMP_pressure;BME280_temperature;BME280_humidity;BME280_pressure;Samples;Min_cycle;Max_cycle;Signal;HPM_P1;HPM_P2
2022/08/29 00:01:47;;;;;;;9.57;8.97;;;21.10;56.70;;;;;;20697;6756;302069;-89
2022/08/29 00:04:22;;;;;;;8.63;8.03;;;21.40;56.00;;;;;;20867;6762;145921;-85
2022/08/29 00:06:58;;;;;;;9.50;8.90;;;21.30;56.20;;;;;;20552;6768;309090;-85
2022/08/29 00:09:34;;;;;;;10.73;10.00;;;21.20;56.50;;;;;;20914;6741;118308;-86
2022/08/29 00:12:10;;;;;;;14.10;13.13;;;21.20;56.50;;;;;;20659;6756;280633;-85
2022/08/29 00:14:45;;;;;;;11.87;11.00;;;21.30;56.30;;;;;;20866;6751;118644;-86
2022/08/29 00:17:21;;;;;;;10.47;9.70;;;21.10;56.40;;;;;;20801;6751;116725;-86
2022/08/29 00:19:56;;;;;;;11.25;10.45;;;20.80;57.00;;;;;;20674;6747;309013;-85
2022/08/29 00:22:32;;;;;;;10.57;9.87;;;20.90;57.10;;;;;;20663;6747;285460;-85
2022/08/29 00:25:08;;;;;;;9.87;9.17;;;21.20;56.30;;;;;;20684;6747;277551;-85
2022/08/29 00:27:45;;;;;;;9.07;8.37;;;21.20;56.30;;;;;;20779;6747;122427;-87
2022/08/29 00:30:22;;;;;;;9.70;8.90;;;20.90;57.00;;;;;;20817;6766;117026;-84
2022/08/29 00:32:57;;;;;;;10.03;9.33;;;20.90;56.90;;;;;;20581;6781;290054;-85
2022/08/29 00:35:33;;;;;;;10.30;9.40;;;21.00;56.50;;;;;;20764;6786;117428;-85
2022/08/29 00:38:10;;;;;;;8.83;8.33;;;20.90;56.70;;;;;;20573;6794;118002;-85
2022/08/29 00:40:45;;;;;;;9.53;8.77;;;20.60;57.20;;;;;;20719;6794;117351;-85
2022/08/29 00:43:21;;;;;;;9.97;9.27;;;20.40;57.70;;;;;;20567;6783;310657;-86
2022/08/29 00:45:59;;;;;;;9.20;8.70;;;20.60;57.40;;;;;;20799;6774;118540;-85
2022/08/29 00:48:35;;;;;;;8.63;8.03;;;20.60;57.40;;;;;;20526;6783;117821;-85
2022/08/29 00:51:10;;;;;;;9.57;8.70;;;20.40;57.90;;;;;;20774;6783;118382;-85
2022/08/29 00:53:46;;;;;;;9.03;8.43;;;20.20;58.30;;;;;;20769;6783;118304;-87
2022/08/29 00:56:21;;;;;;;10.13;9.40;;;20.10;58.90;;;;;;20564;6775;305563;-86
2022/08/29 00:58:58;;;;;;;10.98;10.20;;;20.80;56.70;;;;;;20547;6786;338853;-85
2022/08/29 01:01:33;;;;;;;9.50;8.80;;;20.80;56.70;;;;;;20773;6783;118113;-85
2022/08/29 01:04:10;;;;;;;10.80;9.90;;;20.70;56.80;;;;;;20548;6790;307452;-86
2022/08/29 01:06:46;;;;;;;12.23;11.47;;;20.80;56.70;;;;;;20525;6798;309201;-87
2022/08/29 01:09:21;;;;;;;11.03;10.37;;;21.00;55.90;;;;;;20826;6782;119660;-85
2022/08/29 01:14:52;;;;;;;10.57;9.63;;;20.50;57.10;;;;;;20780;6783;118833;-85
2022/08/29 01:17:28;;;;;;;9.37;8.67;;;20.10;57.70;;;;;;20694;6783;120282;-86
2022/08/29 01:20:23;;;;;;;10.97;10.27;;;19.90;58.10;;;;;;20571;6783;309309;-85
2022/08/29 01:23:16;;;;;;;11.20;10.50;;;20.20;57.80;;;;;;20571;6783;307893;-85
2022/08/29 01:25:51;;;;;;;10.03;9.47;;;20.60;57.00;;;;;;20733;6798;117634;-86
2022/08/29 01:28:34;;;;;;;10.53;9.90;;;20.40;57.10;;;;;;20371;6790;310890;-85
2022/08/29 01:31:09;;;;;;;11.20;10.10;;;20.60;57.00;;;;;;20543;6787;310952;-85
2022/08/29 01:33:48;;;;;;;11.27;10.40;;;20.80;56.40;;;;;;20532;6794;280809;-88
2022/08/29 01:36:26;;;;;;;11.37;10.57;;;21.00;55.90;;;;;;20611;6772;278109;-86
2022/08/29 01:39:03;;;;;;;11.43;10.57;;;21.10;55.60;;;;;;20696;6745;308980;-87
2022/08/29 01:41:41;;;;;;;10.33;9.63;;;20.90;55.60;;;;;;20942;6745;117546;-89
2022/08/29 01:44:16;;;;;;;10.47;9.57;;;20.80;55.90;;;;;;20977;6745;116518;-86
2022/08/29 01:46:55;;;;;;;9.50;8.83;;;20.50;56.90;;;;;;20570;6757;309281;-87
2022/08/29 01:49:26;;;;;;;10.38;9.57;;;20.60;56.80;;;;;;20684;6751;307732;-86
2022/08/29 01:52:02;;;;;;;10.77;9.90;;;20.90;55.90;;;;;;20878;6753;117513;-87
2022/08/29 01:54:37;;;;;;;10.20;9.30;;;20.70;56.10;;;;;;20874;6766;151614;-87
2022/08/29 01:57:13;;;;;;;10.73;9.77;;;20.40;56.80;;;;;;20788;6768;119035;-86
2022/08/29 01:59:49;;;;;;;10.83;10.03;;;20.10;57.30;;;;;;20884;6751;120538;-85
2022/08/29 02:02:25;;;;;;;9.57;8.83;;;19.90;57.70;;;;;;20861;6753;118583;-84
2022/08/29 02:05:00;;;;;;;9.37;8.60;;;19.80;58.20;;;;;;20790;6781;118652;-85
2022/08/29 02:07:35;;;;;;;9.33;8.63;;;19.60;58.30;;;;;;20738;6768;119081;-86
2022/08/29 02:10:11;;;;;;;9.53;8.83;;;19.50;58.60;;;;;;20832;6768;117192;-87
2022/08/29 02:12:47;;;;;;;10.80;10.07;;;19.50;58.80;;;;;;20635;6768;279755;-84
2022/08/29 02:15:23;;;;;;;10.43;9.73;;;20.20;57.50;;;;;;20643;6768;306792;-84
2022/08/29 02:17:58;;;;;;;9.67;8.97;;;20.20;57.40;;;;;;20694;6768;119980;-85
2022/08/29 02:20:34;;;;;;;9.33;8.73;;;20.10;57.30;;;;;;20798;6770;117619;-85
2022/08/29 02:23:09;;;;;;;9.80;9.10;;;19.90;57.70;;;;;;20874;6768;118754;-86
2022/08/29 02:25:46;;;;;;;9.43;8.80;;;19.60;58.10;;;;;;20850;6776;117671;-88
2022/08/29 02:28:21;;;;;;;10.27;9.37;;;19.40;58.60;;;;;;20682;6759;118661;-85
2022/08/29 02:30:56;;;;;;;9.70;9.10;;;19.30;59.10;;;;;;20921;6759;116465;-86
2022/08/29 02:33:32;;;;;;;11.00;10.20;;;19.20;59.40;;;;;;20749;6759;304442;-86
2022/08/29 02:36:07;;;;;;;10.57;9.80;;;19.50;58.50;;;;;;20958;6759;118571;-86
2022/08/29 02:38:43;;;;;;;9.63;9.03;;;19.60;58.30;;;;;;20668;6830;117694;-85
2022/08/29 02:41:21;;;;;;;11.40;10.70;;;19.40;58.60;;;;;;20725;6751;305697;-85
2022/08/29 02:43:54;;;;;;;10.33;9.63;;;19.70;57.70;;;;;;20666;6763;310255;-86
2022/08/29 02:46:29;;;;;;;10.63;9.93;;;20.10;56.70;;;;;;20680;6751;307329;-86
2022/08/29 02:49:05;;;;;;;11.00;10.07;;;20.40;56.00;;;;;;20894;6761;118578;-88
2022/08/29 02:51:41;;;;;;;11.37;10.57;;;20.20;56.20;;;;;;20653;6761;307258;-86
2022/08/29 02:54:16;;;;;;;11.05;10.35;;;20.30;56.30;;;;;;20641;6766;338227;-85
2022/08/29 02:56:52;;;;;;;11.50;10.63;;;20.50;56.00;;;;;;20607;6763;308334;-85
2022/08/29 02:59:27;;;;;;;10.80;10.00;;;20.70;56.40;;;;;;20915;6748;118407;-85
2022/08/29 03:02:03;;;;;;;10.47;9.70;;;20.40;56.50;;;;;;20941;6748;117809;-86
2022/08/29 03:04:38;;;;;;;9.90;9.23;;;20.00;57.00;;;;;;20925;6747;118077;-87
2022/08/29 03:07:14;;;;;;;10.77;9.97;;;19.60;57.60;;;;;;20868;6747;117580;-86
2022/08/29 03:09:49;;;;;;;10.47;9.87;;;19.40;58.30;;;;;;20725;6747;308765;-86
2022/08/29 03:12:26;;;;;;;11.55;10.65;;;20.00;57.30;;;;;;20700;6747;337368;-85
2022/08/29 03:15:01;;;;;;;11.90;11.17;;;20.00;57.00;;;;;;20743;6747;278799;-86
2022/08/29 03:17:37;;;;;;;12.27;11.40;;;20.20;56.30;;;;;;20621;6747;309350;-86
2022/08/29 03:20:15;;;;;;;12.17;11.20;;;20.40;55.80;;;;;;20663;6763;278587;-85
2022/08/29 03:22:48;;;;;;;10.90;10.10;;;20.50;55.50;;;;;;20714;6746;298296;-86
2022/08/29 03:25:24;;;;;;;11.38;10.77;;;20.60;55.60;;;;;;20720;6747;338246;-85
2022/08/29 03:27:59;;;;;;;11.50;10.60;;;20.60;55.00;;;;;;20816;6747;118133;-85
2022/08/29 03:30:35;;;;;;;10.00;9.20;;;20.30;55.70;;;;;;20872;6761;117629;-87
2022/08/29 03:33:10;;;;;;;8.97;8.37;;;19.90;56.60;;;;;;20895;6761;117385;-86
2022/08/29 03:35:46;;;;;;;10.13;9.43;;;19.50;57.50;;;;;;20809;6776;118916;-85
2022/08/29 03:38:22;;;;;;;10.23;9.67;;;19.50;58.20;;;;;;20495;6761;309302;-85
2022/08/29 03:40:58;;;;;;;12.45;11.50;;;19.50;58.20;;;;;;20592;6776;338384;-85
2022/08/29 03:43:34;;;;;;;10.60;9.83;;;19.80;58.00;;;;;;20782;6783;117693;-85
2022/08/29 03:46:10;;;;;;;10.27;9.50;;;19.80;58.00;;;;;;20755;6793;117447;-85
2022/08/29 03:48:45;;;;;;;10.07;9.37;;;19.50;58.40;;;;;;20651;6834;119521;-86
2022/08/29 03:51:21;;;;;;;9.70;8.63;;;19.30;58.90;;;;;;20891;6763;118126;-85
2022/08/29 03:53:56;;;;;;;9.97;9.27;;;19.10;59.10;;;;;;20841;6778;118421;-85
2022/08/29 03:56:34;;;;;;;10.53;9.73;;;18.80;59.60;;;;;;20763;6778;118241;-85
2022/08/29 03:59:11;;;;;;;9.87;9.17;;;18.70;60.20;;;;;;20888;6748;118978;-86
2022/08/29 04:01:47;;;;;;;10.07;9.20;;;18.70;59.80;;;;;;20942;6748;118777;-85
2022/08/29 04:07:18;;;;;;;11.75;11.05;;;18.90;59.50;;;;;;20629;6748;323831;-84
2022/08/29 04:09:54;;;;;;;10.60;9.77;;;18.90;59.40;;;;;;20891;6748;117594;-84
2022/08/29 04:12:29;;;;;;;12.93;11.98;;;19.00;59.10;;;;;;20701;6748;336697;-84
2022/08/29 04:15:06;;;;;;;13.30;12.47;;;19.50;57.80;;;;;;20726;6748;306816;-84
2022/08/29 04:17:42;;;;;;;11.67;10.87;;;19.50;57.80;;;;;;20760;6748;120218;-84
2022/08/29 04:20:17;;;;;;;11.40;10.60;;;19.40;58.00;;;;;;20868;6758;118705;-84
2022/08/29 04:22:53;;;;;;;11.75;10.93;;;19.10;58.70;;;;;;20651;6758;306178;-86
2022/08/29 04:25:35;;;;;;;11.23;10.37;;;19.30;59.20;;;;;;20871;6758;118047;-84
2022/08/29 04:28:05;;;;;;;11.43;10.63;;;19.20;58.60;;;;;;20716;6758;119055;-84
2022/08/29 04:30:41;;;;;;;11.63;10.87;;;19.00;59.00;;;;;;20659;6763;309270;-84
2022/08/29 04:33:18;;;;;;;11.50;10.70;;;19.20;57.90;;;;;;20844;6762;119493;-83
2022/08/29 04:35:53;;;;;;;13.07;12.17;;;19.20;58.10;;;;;;20624;6763;309091;-84
2022/08/29 04:38:30;;;;;;;12.60;11.70;;;19.60;57.00;;;;;;20434;6763;311284;-84
2022/08/29 04:41:05;;;;;;;13.63;12.40;;;19.60;57.00;;;;;;20882;6750;120936;-84
2022/08/29 04:43:42;;;;;;;12.37;11.30;;;19.20;58.20;;;;;;20835;6762;117619;-85
2022/08/29 04:46:17;;;;;;;12.63;11.93;;;19.10;58.10;;;;;;20620;6763;308898;-84
2022/08/29 04:48:53;;;;;;;13.05;12.15;;;19.40;58.30;;;;;;20626;6763;280573;-84
2022/08/29 04:51:30;;;;;;;14.73;13.73;;;19.70;57.50;;;;;;20693;6651;307665;-86
2022/08/29 04:57:27;;;;;;;;;;;;;;;;;;;;;
2022/08/29 04:59:57;;;;;;;11.60;10.87;;;19.30;57.80;;;;;;20731;6649;310308;-89
2022/08/29 05:16:37;;;;;;;135.47;8.77;;;20.40;53.90;;;;;;21083;6571;226088;-88
2022/08/29 05:19:02;;;;;;;15.43;6.90;;;20.10;54.70;;;;;;20995;6772;117239;-86
2022/08/29 05:21:31;;;;;;;15.03;6.40;;;19.70;55.80;;;;;;20975;6779;116844;-86
2022/08/29 05:23:57;;;;;;;89.22;9.43;;;19.40;56.90;;;;;;20684;6759;312031;-86
2022/08/29 05:26:23;;;;;;;45.50;8.25;;;19.50;57.00;;;;;;20601;6808;310560;-87
2022/08/29 05:28:49;;;;;;;7.30;6.90;;;20.10;55.80;;;;;;20601;6809;307721;-87
2022/08/29 05:31:14;;;;;;;7.30;6.90;;;20.00;55.90;;;;;;20633;6809;291741;-85
2022/08/29 05:33:40;;;;;;;7.68;7.15;;;20.30;55.40;;;;;;20599;6809;337053;-86
2022/08/29 05:36:06;;;;;;;8.03;7.53;;;20.40;55.30;;;;;;20605;6815;307409;-87
2022/08/29 05:38:32;;;;;;;8.90;8.20;;;20.50;55.20;;;;;;20576;6815;311899;-85
2022/08/29 05:40:57;;;;;;;8.10;7.70;;;20.60;55.20;;;;;;20830;6815;117857;-85
2022/08/29 05:43:23;;;;;;;10.05;9.35;;;20.40;55.90;;;;;;20658;6815;279570;-86
2022/08/29 05:45:49;;;;;;;9.70;9.00;;;20.40;55.90;;;;;;20608;6817;307967;-89
2022/08/29 05:48:17;;;;;;;9.80;9.20;;;20.50;56.40;;;;;;20807;6829;117184;-86
2022/08/29 05:50:42;;;;;;;9.73;9.00;;;20.40;56.30;;;;;;20824;6817;123505;-86
2022/08/29 05:53:07;;;;;;;6.10;5.70;;;20.20;57.10;;;;;;20865;6809;116654;-88
2022/08/29 05:55:33;;;;;;;6.03;5.73;;;20.00;57.70;;;;;;20864;6809;117165;-87
2022/08/29 05:57:59;;;;;;;6.60;6.20;;;19.80;58.10;;;;;;20649;6809;309226;-85
2022/08/29 06:00:24;;;;;;;6.07;5.78;;;20.00;57.70;;;;;;20857;6809;117093;-85
2022/08/29 06:02:50;;;;;;;6.20;5.90;;;20.10;57.80;;;;;;20635;6809;307387;-87
2022/08/29 06:05:15;;;;;;;6.20;5.80;;;20.30;58.00;;;;;;20666;6809;336215;-88
2022/08/29 06:07:41;;;;;;;6.53;6.22;;;20.60;56.50;;;;;;20654;6809;277365;-85
2022/08/29 06:10:07;;;;;;;6.40;6.10;;;20.90;56.00;;;;;;20869;6809;118761;-87
2022/08/29 06:12:32;;;;;;;7.47;7.17;;;20.70;56.30;;;;;;20640;6809;277158;-87
2022/08/29 06:14:58;;;;;;;6.57;6.07;;;20.80;57.10;;;;;;20875;6809;118668;-87
2022/08/29 06:17:23;;;;;;;6.27;5.87;;;20.70;57.10;;;;;;20872;6809;116386;-85
2022/08/29 06:19:49;;;;;;;8.60;8.10;;;20.40;57.50;;;;;;20638;6809;309764;-85
2022/08/29 06:22:15;;;;;;;8.98;8.38;;;20.50;57.70;;;;;;20856;6809;118151;-86
2022/08/29 06:24:40;;;;;;;10.40;9.80;;;20.60;58.00;;;;;;20623;6809;293516;-86
2022/08/29 06:27:05;;;;;;;12.10;11.20;;;20.80;57.80;;;;;;20864;6808;118373;-87
2022/08/29 06:29:31;;;;;;;10.67;9.53;;;20.90;58.10;;;;;;20871;6809;116930;-87
2022/08/29 06:31:57;;;;;;;9.10;8.53;;;21.00;58.60;;;;;;20870;6809;118716;-86
2022/08/29 06:34:22;;;;;;;8.00;7.60;;;21.00;58.90;;;;;;20853;6809;118014;-90
2022/08/29 06:36:48;;;;;;;9.98;9.48;;;21.00;59.10;;;;;;20657;6809;306604;-84
2022/08/29 06:39:13;;;;;;;10.90;10.20;;;21.30;57.50;;;;;;20645;6809;307512;-85
2022/08/29 06:41:39;;;;;;;11.07;10.37;;;21.70;56.30;;;;;;20876;6809;118570;-87
2022/08/29 06:44:05;;;;;;;12.85;11.95;;;22.00;55.80;;;;;;20659;6809;307455;-86
2022/08/29 06:46:34;;;;;;;12.67;11.83;;;22.00;55.80;;;;;;20587;6809;284394;-85
2022/08/29 06:48:59;;;;;;;12.53;11.63;;;22.30;55.40;;;;;;20839;6809;117858;-87
2022/08/29 06:51:25;;;;;;;12.40;11.60;;;22.50;55.40;;;;;;20617;6809;340169;-86
2022/08/29 06:53:51;;;;;;;11.67;10.87;;;22.50;55.40;;;;;;20831;6809;117982;-85
2022/08/29 06:56:17;;;;;;;13.27;12.37;;;22.50;55.60;;;;;;20617;6809;309767;-85
2022/08/29 06:58:42;;;;;;;12.35;11.45;;;22.60;55.10;;;;;;20817;6809;120386;-86
2022/08/29 07:01:08;;;;;;;11.55;10.80;;;22.70;55.40;;;;;;20835;6809;120443;-86
2022/08/29 07:03:33;;;;;;;11.20;10.40;;;22.50;55.70;;;;;;20831;6809;117469;-85
2022/08/29 07:05:59;;;;;;;11.70;10.80;;;22.50;56.10;;;;;;20833;6809;117990;-86
2022/08/29 07:08:24;;;;;;;13.62;12.68;;;22.50;56.40;;;;;;20593;6809;307521;-85
2022/08/29 07:10:50;;;;;;;11.50;10.70;;;22.80;55.20;;;;;;20835;6809;117598;-85
2022/08/29 07:13:16;;;;;;;12.35;11.55;;;23.00;55.10;;;;;;20617;6809;278939;-86
2022/08/29 07:15:41;;;;;;;11.70;10.80;;;23.30;54.00;;;;;;20628;6809;278253;-85
2022/08/29 07:18:07;;;;;;;11.20;10.30;;;23.70;53.60;;;;;;20826;6809;118431;-86
2022/08/29 07:20:32;;;;;;;11.70;10.90;;;23.80;53.90;;;;;;20606;6809;278122;-86
2022/08/29 07:23:02;;;;;;;12.35;11.45;;;24.00;53.10;;;;;;20625;6809;310815;-86
2022/08/29 07:25:28;;;;;;;12.27;11.47;;;24.30;52.40;;;;;;20641;6809;281868;-85
2022/08/29 07:27:54;;;;;;;11.57;10.70;;;24.70;51.40;;;;;;20837;6809;119057;-85
2022/08/29 07:30:19;;;;;;;11.32;10.50;;;24.70;51.70;;;;;;20814;6809;119634;-86
2022/08/29 07:32:45;;;;;;;12.00;11.10;;;24.50;52.10;;;;;;20625;6809;276901;-86
2022/08/29 07:35:11;;;;;;;12.13;11.33;;;24.80;50.70;;;;;;20625;6809;282986;-86
2022/08/29 07:37:36;;;;;;;11.00;10.30;;;25.10;50.90;;;;;;20628;6808;335566;-86
2022/08/29 07:40:02;;;;;;;11.70;10.90;;;25.50;50.50;;;;;;20609;6809;277639;-86
2022/08/29 07:42:27;;;;;;;11.47;10.67;;;25.80;49.80;;;;;;20623;6809;308917;-87
2022/08/29 07:44:53;;;;;;;10.93;10.13;;;26.30;49.30;;;;;;20677;6809;307132;-87
2022/08/29 07:47:19;;;;;;;9.93;9.33;;;26.30;49.30;;;;;;20822;6809;117938;-86
2022/08/29 07:49:45;;;;;;;11.75;10.95;;;26.20;49.50;;;;;;20626;6809;337002;-86
2022/08/29 07:52:10;;;;;;;10.40;9.70;;;26.30;49.30;;;;;;20623;6809;337077;-90
2022/08/29 07:54:37;;;;;;;10.25;9.55;;;26.50;49.00;;;;;;20813;6809;117307;-87
2022/08/29 07:57:03;;;;;;;12.25;11.45;;;26.60;48.30;;;;;;20626;6809;281019;-89
2022/08/29 07:59:28;;;;;;;12.60;10.43;;;26.60;48.30;;;;;;20837;6809;118042;-86
2022/08/29 08:01:54;;;;;;;11.63;10.80;;;26.50;48.70;;;;;;20837;6809;117559;-86
2022/08/29 08:04:20;;;;;;;10.83;9.93;;;26.30;49.50;;;;;;20819;6809;117612;-86
2022/08/29 08:06:45;;;;;;;11.50;10.43;;;26.30;49.90;;;;;;20841;6809;121273;-88
2022/08/29 08:09:14;;;;;;;10.30;9.60;;;26.20;50.20;;;;;;20841;6809;119527;-86
2022/08/29 08:11:38;;;;;;;9.40;8.70;;;26.20;50.20;;;;;;20842;6809;118095;-87
2022/08/29 08:14:03;;;;;;;9.50;8.87;;;26.30;50.00;;;;;;20621;6809;310672;-87
2022/08/29 08:16:33;;;;;;;10.20;9.50;;;26.60;47.40;;;;;;20632;6809;280995;-86
2022/08/29 08:18:58;;;;;;;9.53;8.83;;;27.10;48.00;;;;;;20640;6809;280471;-87
2022/08/29 08:21:24;;;;;;;8.90;8.20;;;27.60;45.90;;;;;;20844;6809;116204;-87
2022/08/29 08:23:51;;;;;;;8.17;7.63;;;27.70;46.50;;;;;;20820;6809;117598;-89
2022/08/29 08:26:16;;;;;;;9.70;9.07;;;27.50;46.80;;;;;;20577;6809;306520;-87
2022/08/29 08:28:42;;;;;;;9.20;8.55;;;27.90;44.30;;;;;;20582;6809;315416;-88
2022/08/29 08:31:07;;;;;;;9.23;8.63;;;28.00;44.40;;;;;;20827;6809;117798;-88
2022/08/29 08:33:33;;;;;;;8.63;8.03;;;27.90;45.10;;;;;;20627;6809;277669;-88
2022/08/29 08:35:58;;;;;;;8.37;7.80;;;28.10;45.30;;;;;;20618;6809;306137;-88
2022/08/29 08:38:24;;;;;;;7.97;7.53;;;28.50;43.90;;;;;;20828;6809;149156;-87
2022/08/29 08:40:59;;;;;;;7.50;7.00;;;28.50;44.20;;;;;;20633;6809;307098;-86
2022/08/29 08:43:26;;;;;;;8.43;6.23;;;28.70;44.30;;;;;;20822;6809;117803;-88
2022/08/29 08:45:51;;;;;;;7.55;6.95;;;28.70;44.40;;;;;;20613;6809;277984;-86
2022/08/29 08:48:19;;;;;;;7.53;6.93;;;28.90;43.40;;;;;;20618;6809;281218;-87
2022/08/29 08:50:48;;;;;;;7.30;6.70;;;29.10;42.20;;;;;;20824;6808;117260;-87
2022/08/29 08:53:31;;;;;;;6.97;6.47;;;29.10;42.80;;;;;;20764;6809;117515;-87
2022/08/29 08:55:55;;;;;;;7.30;6.70;;;29.00;43.40;;;;;;19574;7155;289949;-88
2022/08/29 08:58:43;;;;;;;6.50;6.00;;;29.20;42.50;;;;;;20315;6809;120093;-87
2022/08/29 09:01:13;;;;;;;7.40;6.80;;;29.20;43.30;;;;;;20640;6809;278843;-88
2022/08/29 09:03:54;;;;;;;8.10;7.33;;;29.60;42.50;;;;;;19937;6809;309107;-88
2022/08/29 09:06:28;;;;;;;6.73;6.10;;;29.90;40.40;;;;;;20817;6809;117383;-86
2022/08/29 09:09:00;;;;;;;7.73;6.47;;;29.90;41.40;;;;;;20820;6809;117945;-87
2022/08/29 09:11:54;;;;;;;7.00;6.40;;;29.80;41.60;;;;;;20540;6809;277684;-88
2022/08/29 09:14:28;;;;;;;6.63;6.03;;;29.80;41.60;;;;;;20618;6809;276788;-85
2022/08/29 09:16:54;;;;;;;6.83;6.33;;;30.30;40.70;;;;;;20795;6809;114580;-85
2022/08/29 09:19:19;;;;;;;7.22;6.62;;;30.30;40.80;;;;;;20616;6809;335544;-85
2022/08/29 09:21:45;;;;;;;6.20;5.60;;;30.40;38.60;;;;;;20617;6809;336857;-85
2022/08/29 09:24:12;;;;;;;6.13;5.67;;;30.60;38.60;;;;;;20613;6809;337573;-85
2022/08/29 09:26:39;;;;;;;6.37;5.93;;;30.60;37.10;;;;;;20587;6809;277923;-85
2022/08/29 09:29:08;;;;;;;6.20;5.70;;;30.50;38.60;;;;;;20848;6809;117807;-86
2022/08/29 09:31:34;;;;;;;6.17;5.67;;;30.40;38.60;;;;;;20836;6809;120132;-85
2022/08/29 09:34:07;;;;;;;5.80;5.47;;;30.10;39.40;;;;;;20643;6809;295423;-84
2022/08/29 09:36:38;;;;;;;6.20;5.70;;;30.50;38.40;;;;;;20613;6809;277084;-89
2022/08/29 09:39:10;;;;;;;6.70;6.10;;;30.40;38.30;;;;;;20633;6809;277163;-85
2022/08/29 09:41:36;;;;;;;5.90;5.40;;;30.80;37.80;;;;;;20619;6809;306535;-87
2022/08/29 09:44:05;;;;;;;5.53;5.13;;;30.70;36.90;;;;;;20871;6809;66741;-85
2022/08/29 09:46:30;;;;;;;6.18;5.68;;;30.60;38.20;;;;;;20607;6809;296966;-86
2022/08/29 09:48:56;;;;;;;6.00;5.60;;;30.60;37.80;;;;;;20842;6809;117323;-86
2022/08/29 09:51:27;;;;;;;5.72;5.32;;;30.60;37.00;;;;;;20647;6809;277097;-87
2022/08/29 09:53:51;;;;;;;5.60;5.22;;;30.60;37.00;;;;;;20645;6809;309596;-86
2022/08/29 09:56:18;;;;;;;5.30;4.90;;;30.80;37.60;;;;;;20843;6809;121121;-86
2022/08/29 09:58:43;;;;;;;5.63;5.20;;;30.80;37.60;;;;;;20591;6809;295990;-86
2022/08/29 10:01:15;;;;;;;5.95;5.40;;;30.80;37.00;;;;;;20635;6808;307086;-86
2022/08/29 10:03:41;;;;;;;5.03;4.73;;;31.00;36.60;;;;;;20841;6809;117406;-86
2022/08/29 10:06:16;;;;;;;5.53;5.03;;;30.80;37.40;;;;;;20837;6809;117122;-89
2022/08/29 10:08:42;;;;;;;4.97;4.57;;;30.50;38.20;;;;;;20603;6809;279783;-88
2022/08/29 10:11:20;;;;;;;5.33;4.93;;;30.50;37.00;;;;;;20577;6809;308865;-89
2022/08/29 10:13:47;;;;;;;5.40;5.00;;;30.70;37.00;;;;;;20583;6809;281517;-87
2022/08/29 10:16:27;;;;;;;5.50;5.07;;;31.00;36.50;;;;;;20611;6809;306515;-91
2022/08/29 10:18:58;;;;;;;5.63;5.10;;;31.30;36.40;;;;;;20616;6809;306764;-90
2022/08/29 10:21:28;;;;;;;5.35;4.95;;;31.40;35.50;;;;;;20820;6809;117027;-88
2022/08/29 10:24:13;;;;;;;5.37;4.97;;;31.20;36.30;;;;;;20600;6809;306431;-88
2022/08/29 10:26:55;;;;;;;5.03;4.73;;;31.10;36.00;;;;;;20801;6809;117898;-87
2022/08/29 10:29:21;;;;;;;4.63;4.27;;;30.70;36.50;;;;;;20796;6809;118249;-89
2022/08/29 10:32:06;;;;;;;5.40;4.95;;;30.70;36.40;;;;;;20594;6809;336034;-90
2022/08/29 10:34:35;;;;;;;5.00;4.43;;;30.70;34.60;;;;;;20801;6809;118975;-88
2022/08/29 10:37:00;;;;;;;5.73;4.70;;;30.60;36.20;;;;;;20604;6809;306985;-91
2022/08/29 10:39:43;;;;;;;5.17;4.40;;;30.70;35.30;;;;;;20819;6809;117770;-89
2022/08/29 10:42:11;;;;;;;5.50;4.60;;;30.70;35.80;;;;;;20806;6809;118307;-88
2022/08/29 10:44:43;;;;;;;4.83;4.53;;;30.60;36.20;;;;;;20801;6809;146412;-87
2022/08/29 10:47:31;;;;;;;5.37;4.90;;;30.40;36.50;;;;;;20828;6809;117144;-90
2022/08/29 10:50:26;;;;;;;5.40;5.00;;;30.40;35.40;;;;;;20622;6809;309913;-84
2022/08/29 10:53:05;;;;;;;5.70;5.30;;;30.60;34.80;;;;;;20607;6809;283222;-87
2022/08/29 10:56:01;;;;;;;5.63;4.93;;;30.60;34.70;;;;;;20604;6809;307373;-87
2022/08/29 10:58:59;;;;;;;4.87;4.57;;;30.80;35.10;;;;;;20559;6809;314904;-86
2022/08/29 11:01:38;;;;;;;4.77;4.37;;;31.00;33.80;;;;;;20617;6809;296482;-86
2022/08/29 11:04:15;;;;;;;4.90;4.40;;;31.10;34.00;;;;;;20028;6824;278504;-90
2022/08/29 11:06:54;;;;;;;6.12;5.75;;;31.10;33.20;;;;;;20513;6830;312780;-87
2022/08/29 11:09:30;;;;;;;4.93;4.43;;;31.10;33.80;;;;;;20041;6837;119293;-87
2022/08/29 11:12:08;;;;;;;5.13;4.73;;;31.00;34.50;;;;;;20732;6836;117348;-89
2022/08/29 11:14:37;;;;;;;4.80;4.50;;;30.60;35.10;;;;;;20735;6835;118594;-89
2022/08/29 11:17:03;;;;;;;5.20;4.70;;;30.30;35.70;;;;;;20570;6835;277924;-87
2022/08/29 11:19:28;;;;;;;5.00;4.63;;;30.30;34.90;;;;;;20792;6836;115997;-91
2022/08/29 11:21:59;;;;;;;5.00;4.60;;;30.30;35.40;;;;;;20233;6836;279024;-87
2022/08/29 11:24:26;;;;;;;4.03;3.83;;;30.40;35.90;;;;;;20745;6836;116676;-86
2022/08/29 11:26:54;;;;;;;4.73;4.43;;;30.50;35.90;;;;;;20531;6836;277955;-87
2022/08/29 11:29:40;;;;;;;4.70;4.30;;;30.60;34.80;;;;;;20762;6836;117623;-87
2022/08/29 11:32:25;;;;;;;4.67;4.33;;;30.60;34.80;;;;;;20686;6852;117289;-86
2022/08/29 11:35:08;;;;;;;4.95;4.57;;;30.60;34.50;;;;;;20536;6837;313083;-86
2022/08/29 11:38:00;;;;;;;5.10;4.80;;;30.50;34.40;;;;;;20668;6853;119752;-87
2022/08/29 11:40:38;;;;;;;5.23;4.33;;;30.50;35.10;;;;;;20444;6834;283056;-87
2022/08/29 11:43:04;;;;;;;4.80;4.50;;;30.60;34.50;;;;;;20554;6834;277510;-86
2022/08/29 11:45:34;;;;;;;4.60;4.30;;;30.80;34.10;;;;;;20761;6834;123296;-87
2022/08/29 11:47:59;;;;;;;5.27;4.30;;;30.80;34.10;;;;;;20741;6834;117239;-88
2022/08/29 11:50:32;;;;;;;5.05;4.60;;;30.60;34.80;;;;;;20162;6834;308764;-89
2022/08/29 11:52:57;;;;;;;4.53;4.23;;;30.60;34.10;;;;;;20748;6834;117410;-87
2022/08/29 11:55:26;;;;;;;5.83;4.30;;;30.60;34.80;;;;;;20461;6834;277954;-87
2022/08/29 11:57:51;;;;;;;4.17;3.97;;;30.70;34.00;;;;;;20761;6834;117482;-88
2022/08/29 12:00:24;;;;;;;4.53;4.23;;;30.70;34.60;;;;;;20538;6834;280213;-87
2022/08/29 12:02:50;;;;;;;4.60;4.30;;;30.80;34.00;;;;;;20539;6834;295767;-87
2022/08/29 12:05:15;;;;;;;4.30;4.00;;;31.00;32.50;;;;;;20761;6834;117698;-86
2022/08/29 12:07:44;;;;;;;4.60;4.20;;;30.90;33.60;;;;;;20547;6834;307940;-86
2022/08/29 12:10:10;;;;;;;5.10;4.00;;;30.90;33.10;;;;;;20752;6834;117199;-86
2022/08/29 12:12:42;;;;;;;4.60;4.20;;;30.80;34.10;;;;;;20531;6834;289102;-86
2022/08/29 12:15:40;;;;;;;5.37;4.40;;;30.90;33.60;;;;;;20518;6834;306635;-89
2022/08/29 12:18:11;;;;;;;4.50;4.10;;;31.10;32.80;;;;;;20551;6834;310842;-86
2022/08/29 12:20:44;;;;;;;4.77;4.40;;;31.30;33.20;;;;;;20757;6834;118339;-86
2022/08/29 12:23:10;;;;;;;4.27;4.07;;;31.10;33.20;;;;;;20788;6833;116388;-86
2022/08/29 12:25:45;;;;;;;4.30;4.00;;;30.80;33.80;;;;;;20785;6833;117468;-87
2022/08/29 12:28:18;;;;;;;4.90;4.50;;;30.60;33.90;;;;;;20794;6834;115921;-86
2022/08/29 12:30:49;;;;;;;4.50;4.20;;;30.40;34.70;;;;;;20784;6834;121263;-86
2022/08/29 12:33:38;;;;;;;4.05;3.85;;;30.30;34.90;;;;;;20510;6834;307461;-87
2022/08/29 12:36:13;;;;;;;3.80;3.60;;;30.50;33.80;;;;;;20761;6834;117503;-86
2022/08/29 12:39:06;;;;;;;4.32;4.12;;;30.60;33.10;;;;;;19863;6834;337057;-86
2022/08/29 12:41:39;;;;;;;4.63;4.23;;;30.50;33.00;;;;;;20736;6834;117477;-86
2022/08/29 12:44:03;;;;;;;4.60;4.30;;;30.50;33.60;;;;;;20543;6834;307020;-86
2022/08/29 12:46:31;;;;;;;4.53;4.23;;;30.60;34.10;;;;;;20529;6834;297432;-86
2022/08/29 12:48:57;;;;;;;4.83;4.43;;;30.80;33.30;;;;;;20733;6834;123384;-86
2022/08/29 12:51:35;;;;;;;4.53;4.12;;;30.80;33.80;;;;;;20182;6834;308078;-86
2022/08/29 12:54:01;;;;;;;6.27;4.33;;;30.90;32.20;;;;;;20758;6834;117199;-86
2022/08/29 12:56:26;;;;;;;4.20;3.90;;;30.80;33.20;;;;;;20747;6834;117603;-86
2022/08/29 12:58:52;;;;;;;4.53;4.13;;;30.60;33.50;;;;;;20759;6834;118072;-86
2022/08/29 13:01:20;;;;;;;4.90;4.17;;;30.50;33.80;;;;;;20530;6834;279214;-86
2022/08/29 13:04:00;;;;;;;4.12;3.92;;;30.80;33.40;;;;;;20518;6834;309959;-86
2022/08/29 13:06:25;;;;;;;3.80;3.60;;;30.80;33.40;;;;;;20707;6834;118735;-86
2022/08/29 13:08:51;;;;;;;4.25;3.97;;;30.80;33.80;;;;;;20545;6834;342886;-86
2022/08/29 13:11:20;;;;;;;4.33;4.13;;;31.00;33.30;;;;;;20754;6834;118277;-86
2022/08/29 13:13:45;;;;;;;4.27;3.97;;;30.90;33.30;;;;;;20753;6834;119017;-87
2022/08/29 13:16:11;;;;;;;5.63;4.30;;;30.60;33.40;;;;;;20757;6834;120994;-87
2022/08/29 13:18:36;;;;;;;4.50;4.20;;;30.20;33.40;;;;;;20704;6834;122191;-86